Time;durP1;ratioP1;P1;durP2;ratioP2;P2;SDS_P1;SDS_P2;PMS_P1;PMS_P2;Temp;Humidity;BMP_temperature;BMP_pressure;BME280_temperature;BME280_humidity;BME280_pressure;Samples;Min_cycle;Max_cycle;Signal;HPM_P1;HPM_P2
2021/11/08 00:00:45;;;;;;;25.55;9.65;;;;;;;5.43;80.00;98633.11;2188547;81;21020;-65
2021/11/08 00:03:51;;;;;;;26.55;9.70;;;;;;;5.44;79.87;98638.25;2209932;81;21519;-65
2021/11/08 00:06:52;;;;;;;29.48;9.60;;;;;;;5.44;80.19;98640.02;2191681;80;21021;-65
2021/11/08 00:09:53;;;;;;;25.12;8.58;;;;;;;5.45;79.84;98642.55;2220892;80;21071;-65
2021/11/08 00:12:55;;;;;;;23.30;8.33;;;;;;;5.45;80.10;98643.02;2220836;80;21004;-65
2021/11/08 00:22:03;;;;;;;25.10;8.28;;;;;;;5.55;80.14;98653.41;2190447;80;21896;-65
2021/11/08 00:25:04;;;;;;;23.07;7.83;;;;;;;5.58;80.13;98651.14;2220775;80;20985;-65
2021/11/08 00:28:07;;;;;;;24.92;7.95;;;;;;;5.64;80.28;98659.50;2220681;80;21025;-65
2021/11/08 00:31:09;;;;;;;25.35;8.38;;;;;;;5.67;80.12;98655.45;2220408;80;21138;-65
2021/11/08 00:34:10;;;;;;;23.87;7.42;;;;;;;5.70;80.13;98655.79;2220520;80;21592;-65
2021/11/08 00:37:12;;;;;;;23.60;7.78;;;;;;;5.75;80.25;98659.05;2220569;80;21032;-65
2021/11/08 00:40:14;;;;;;;26.05;8.05;;;;;;;5.78;80.08;98655.00;2220723;80;21551;-65
2021/11/08 00:43:15;;;;;;;23.15;7.65;;;;;;;5.78;80.08;98655.00;2220632;80;21040;-65
2021/11/08 00:46:17;;;;;;;24.35;8.23;;;;;;;5.86;80.01;98676.34;2220542;80;21056;-65
2021/11/08 00:49:18;;;;;;;29.52;10.03;;;;;;;5.88;79.79;98660.66;2220679;80;20975;-65
2021/11/08 00:52:19;;;;;;;26.37;7.92;;;;;;;5.87;79.79;98678.01;2220550;80;21086;-65
2021/11/08 00:55:23;;;;;;;25.30;8.23;;;;;;;5.86;79.62;98681.98;2220531;80;21560;-65
2021/11/08 00:58:32;;;;;;;23.83;7.72;;;;;;;5.82;79.97;98686.50;2189675;80;21028;-65
2021/11/08 01:01:28;;;;;;;26.80;8.18;;;;;;;5.84;79.78;98685.96;2190329;80;21024;-65
2021/11/08 01:04:30;;;;;;;25.62;7.72;;;;;;;5.87;79.88;98688.89;2220767;80;21583;-65
2021/11/08 01:07:31;;;;;;;23.52;7.85;;;;;;;5.89;79.94;98695.73;2216161;80;21023;-65
2021/11/08 01:10:32;;;;;;;25.08;7.28;;;;;;;5.94;79.64;98688.17;2210407;81;21023;-65
2021/11/08 01:13:34;;;;;;;23.50;7.58;;;;;;;6.01;79.62;98688.33;2210309;81;21502;-65
2021/11/08 01:16:37;;;;;;;23.18;7.90;;;;;;;6.05;79.85;98687.28;2210524;80;20949;-64
2021/11/08 01:19:39;;;;;;;21.25;7.17;;;;;;;6.05;79.85;98687.28;2210225;81;21137;-65
2021/11/08 01:22:41;;;;;;;22.93;6.85;;;;;;;6.07;79.52;98680.23;2210389;81;21076;-65
2021/11/08 01:25:43;;;;;;;22.85;7.42;;;;;;;6.06;79.89;98688.51;2210605;80;21093;-65
2021/11/08 01:28:47;;;;;;;20.05;6.80;;;;;;;6.06;80.69;98690.25;2210342;81;21492;-65
2021/11/08 01:31:48;;;;;;;21.90;6.62;;;;;;;6.02;81.16;98693.45;2188773;81;21499;-65
2021/11/08 01:34:49;;;;;;;21.33;6.87;;;;;;;5.99;81.07;98691.00;2210323;81;20985;-65
2021/11/08 01:38:01;;;;;;;21.37;6.83;;;;;;;5.97;81.32;98694.55;2210379;80;21044;-64
2021/11/08 01:40:54;;;;;;;21.05;6.55;;;;;;;5.95;81.31;98701.12;2188676;81;21515;-65
2021/11/08 01:43:56;;;;;;;20.55;6.60;;;;;;;5.92;81.18;98696.05;2210315;81;21029;-64
2021/11/08 01:46:57;;;;;;;23.12;6.80;;;;;;;5.90;81.46;98704.37;2210206;81;21575;-64
2021/11/08 01:49:59;;;;;;;22.48;6.95;;;;;;;5.92;81.34;98706.91;2210220;80;21045;-65
2021/11/08 01:53:01;;;;;;;19.95;7.37;;;;;;;5.93;81.36;98709.91;2209917;81;21059;-65
2021/11/08 01:56:02;;;;;;;22.35;6.97;;;;;;;5.94;81.22;98702.03;2210145;81;21048;-64
2021/11/08 01:59:03;;;;;;;21.73;6.25;;;;;;;5.96;81.48;98707.16;2210208;81;21044;-64
2021/11/08 02:02:05;;;;;;;20.97;6.70;;;;;;;5.90;81.42;98711.75;2210459;81;21008;-64
2021/11/08 02:05:06;;;;;;;22.95;7.17;;;;;;;5.89;81.16;98704.00;2210185;80;21031;-65
2021/11/08 02:08:09;;;;;;;23.32;6.42;;;;;;;5.91;81.25;98707.38;2215541;80;21056;-65
2021/11/08 02:11:10;;;;;;;19.90;6.37;;;;;;;5.95;81.32;98706.33;2220611;80;21095;-65
2021/11/08 02:14:12;;;;;;;22.05;6.55;;;;;;;5.97;81.08;98711.03;2220468;80;21606;-64
2021/11/08 02:17:14;;;;;;;23.12;6.03;;;;;;;5.96;80.90;98717.14;2220694;80;21091;-65
2021/11/08 02:20:16;;;;;;;20.92;6.10;;;;;;;5.96;80.84;98717.58;2220363;80;21096;-65
2021/11/08 02:23:18;;;;;;;19.23;5.75;;;;;;;5.96;80.88;98708.47;2220699;80;21110;-65
2021/11/08 02:26:20;;;;;;;20.85;5.65;;;;;;;5.94;80.82;98714.21;2220603;80;21119;-65
2021/11/08 02:29:22;;;;;;;19.77;5.78;;;;;;;5.94;80.76;98712.91;2220599;80;21024;-64
2021/11/08 02:32:23;;;;;;;19.15;5.42;;;;;;;5.90;80.83;98706.54;2220416;80;21068;-65
2021/11/08 02:35:25;;;;;;;21.02;5.83;;;;;;;5.91;80.78;98713.87;2220642;80;21035;-65
2021/11/08 02:38:27;;;;;;;19.90;6.08;;;;;;;5.89;80.43;98720.45;2220595;80;21122;-64
2021/11/08 02:41:29;;;;;;;19.45;5.50;;;;;;;5.87;80.42;98726.64;2220558;80;21049;-64
2021/11/08 02:44:30;;;;;;;19.30;5.75;;;;;;;5.79;80.49;98728.72;2220690;80;21674;-65
2021/11/08 02:47:32;;;;;;;18.23;5.47;;;;;;;5.73;80.49;98709.87;2220339;80;21076;-65
2021/11/08 02:50:35;;;;;;;20.95;5.97;;;;;;;5.70;80.37;98728.22;2220402;80;21045;-65
2021/11/08 02:53:38;;;;;;;19.98;5.95;;;;;;;5.67;80.27;98726.19;2220591;80;21542;-65
2021/11/08 02:56:40;;;;;;;21.15;5.65;;;;;;;5.58;80.72;98741.73;2220542;80;20980;-65
2021/11/08 02:59:41;;;;;;;18.42;5.90;;;;;;;5.57;80.67;98727.49;2220638;80;21096;-65
2021/11/08 03:02:44;;;;;;;20.48;5.62;;;;;;;5.55;80.76;98733.59;2220542;80;21040;-64
2021/11/08 03:05:45;;;;;;;21.12;5.90;;;;;;;5.52;80.77;98744.14;2220670;80;20976;-65
2021/11/08 03:08:47;;;;;;;19.90;6.00;;;;;;;5.48;80.59;98748.23;2220444;80;21048;-65
2021/11/08 03:11:48;;;;;;;20.65;6.20;;;;;;;5.43;80.64;98739.77;2220659;80;21027;-65
2021/11/08 03:18:02;;;;;;;21.65;6.42;;;;;;;5.40;80.94;98759.41;2189950;80;21469;-64
2021/11/08 03:20:57;;;;;;;21.62;5.92;;;;;;;5.32;80.92;98758.43;2190167;80;21496;-64
2021/11/08 03:24:03;;;;;;;19.52;5.35;;;;;;;5.25;81.02;98761.72;2220644;80;21040;-65
2021/11/08 03:27:07;;;;;;;20.08;5.37;;;;;;;5.20;81.02;98763.64;2190279;80;20969;-65
2021/11/08 03:30:06;;;;;;;22.25;5.87;;;;;;;5.15;81.11;98766.44;2190080;80;20988;-64
2021/11/08 03:33:07;;;;;;;19.25;5.40;;;;;;;5.15;81.18;98778.60;2220330;80;21609;-64
2021/11/08 03:36:10;;;;;;;17.73;5.10;;;;;;;5.06;81.23;98783.72;2220690;80;21032;-64
2021/11/08 03:39:14;;;;;;;18.05;4.92;;;;;;;5.06;81.23;98783.72;2220513;80;21555;-65
2021/11/08 03:42:15;;;;;;;19.77;5.15;;;;;;;5.01;81.09;98782.60;2190104;80;21071;-65
2021/11/08 03:45:16;;;;;;;20.57;4.90;;;;;;;4.95;80.89;98780.69;2220494;80;21040;-65
2021/11/08 03:48:19;;;;;;;20.50;5.07;;;;;;;4.91;80.85;98783.00;2220294;80;21047;-65
2021/11/08 03:51:21;;;;;;;17.05;5.03;;;;;;;4.86;81.17;98784.02;2220410;80;21551;-65
2021/11/08 03:54:22;;;;;;;17.00;4.58;;;;;;;4.81;81.18;98793.77;2220462;80;21076;-64
2021/11/08 03:57:24;;;;;;;21.35;5.37;;;;;;;4.77;81.63;98791.31;2220407;80;21064;-65
2021/11/08 04:00:26;;;;;;;21.80;5.33;;;;;;;4.73;81.42;98791.90;2220555;80;21032;-65
2021/11/08 04:03:27;;;;;;;22.48;5.50;;;;;;;4.70;81.20;98788.13;2220530;80;21573;-64
2021/11/08 04:06:29;;;;;;;20.23;5.50;;;;;;;4.65;81.55;98792.63;2220684;80;21025;-64
2021/11/08 04:09:31;;;;;;;21.60;5.43;;;;;;;4.59;81.71;98796.77;2211851;80;21666;-65
2021/11/08 04:12:35;;;;;;;;;;;;;;;4.55;81.81;98799.91;2212984;80;21051;-65
2021/11/08 04:15:37;;;;;;;23.07;5.60;;;;;;;4.51;81.61;98783.61;2210405;80;20415;-64
2021/11/08 04:18:46;;;;;;;21.75;5.70;;;;;;;4.48;81.73;98790.22;2210310;81;21012;-65
2021/11/08 04:21:42;;;;;;;19.98;5.62;;;;;;;4.42;82.01;98786.52;2188770;81;20981;-64
2021/11/08 04:24:45;;;;;;;21.82;5.90;;;;;;;4.39;81.83;98792.30;2210508;81;20980;-64
2021/11/08 04:27:47;;;;;;;20.92;5.67;;;;;;;4.48;82.31;98786.33;2210438;81;21515;-65
2021/11/08 04:30:48;;;;;;;20.75;6.15;;;;;;;4.48;82.31;98786.33;2210572;81;20981;-64
2021/11/08 04:33:53;;;;;;;25.15;7.20;;;;;;;4.59;82.59;98788.97;2210321;81;20993;-64
2021/11/08 04:40:06;;;;;;;25.97;6.72;;;;;;;4.77;82.43;98776.59;2188737;81;21491;-64
2021/11/08 04:44:10;;;;;;;25.20;5.78;;;;;;;4.86;82.52;98781.42;2188613;81;21487;-64
2021/11/08 04:55:25;;;;;;;22.62;5.58;;;;;;;5.13;82.10;98789.50;2188479;81;20977;-65
2021/11/08 05:29:56;;;;;;;18.48;4.30;;;;;;;5.47;81.12;98806.38;2188704;81;20942;-64
2021/11/08 05:31:51;;;;;;;18.73;5.10;;;;;;;5.50;81.10;98812.31;2188505;81;21083;-64
2021/11/08 05:34:53;;;;;;;21.83;5.33;;;;;;;5.52;80.90;98809.65;2210598;81;20969;-64
2021/11/08 05:37:54;;;;;;;20.50;4.80;;;;;;;5.55;80.54;98823.36;2210256;81;21029;-64
2021/11/08 05:40:56;;;;;;;17.98;4.62;;;;;;;5.57;80.95;98826.37;2210370;81;20965;-64
2021/11/08 05:43:57;;;;;;;18.77;4.87;;;;;;;5.58;80.71;98826.77;2210177;81;21024;-64
2021/11/08 05:46:59;;;;;;;20.37;5.28;;;;;;;5.60;80.76;98824.94;2210027;81;21544;-64
2021/11/08 05:50:01;;;;;;;20.27;5.20;;;;;;;5.65;80.34;98826.91;2210359;80;21000;-64
2021/11/08 05:53:02;;;;;;;20.55;4.83;;;;;;;5.68;80.15;98834.59;2210162;80;21013;-65
2021/11/08 05:56:15;;;;;;;20.27;4.70;;;;;;;5.71;79.99;98849.61;2210336;81;20992;-64
2021/11/08 06:51:03;;;;;;;22.70;5.12;;;;;;;6.15;78.85;98916.87;2188682;81;20992;-65
2021/11/08 06:54:05;;;;;;;19.77;4.28;;;;;;;6.18;78.73;98928.02;2210214;81;21019;-65
2021/11/08 06:57:13;;;;;;;19.75;4.65;;;;;;;6.23;78.42;98918.27;2210505;80;20945;-65
2021/11/08 07:00:10;;;;;;;24.02;5.17;;;;;;;6.29;78.33;98931.93;2188630;81;21004;-64
2021/11/08 07:03:11;;;;;;;21.90;5.10;;;;;;;6.35;77.58;98932.53;2210299;81;21004;-64
2021/11/08 07:06:13;;;;;;;21.65;4.75;;;;;;;6.40;78.41;98940.15;2210272;81;21029;-64
2021/11/08 07:09:14;;;;;;;19.92;4.65;;;;;;;6.45;77.21;98933.00;2210132;80;21511;-64
2021/11/08 07:12:16;;;;;;;19.95;4.72;;;;;;;6.46;77.17;98938.58;2210463;81;21031;-65
2021/11/08 07:15:19;;;;;;;21.57;4.55;;;;;;;6.47;77.23;98936.38;2210268;80;21750;-64
2021/11/08 07:18:20;;;;;;;22.13;4.90;;;;;;;6.48;77.45;98932.86;2188626;81;21832;-64
2021/11/08 07:21:22;;;;;;;20.97;4.90;;;;;;;6.54;77.71;98936.50;2210036;81;21052;-64
2021/11/08 07:24:23;;;;;;;23.80;4.85;;;;;;;6.58;77.43;98934.16;2210250;81;20997;-65
2021/11/08 07:27:25;;;;;;;25.90;5.10;;;;;;;6.64;76.59;98942.17;2210671;80;21011;-64
2021/11/08 07:30:27;;;;;;;19.35;4.80;;;;;;;6.70;77.11;98946.28;2210286;80;20993;-64
2021/11/08 07:33:30;;;;;;;19.25;4.22;;;;;;;6.75;76.17;98950.81;2210336;81;21072;-65
2021/11/08 07:36:32;;;;;;;22.98;5.45;;;;;;;6.81;77.00;98943.19;2210116;81;21520;-65
2021/11/08 07:39:33;;;;;;;23.92;5.30;;;;;;;6.83;76.74;98946.12;2210127;81;21080;-64
2021/11/08 07:42:35;;;;;;;20.60;4.80;;;;;;;6.86;76.43;98943.84;2210108;81;21546;-65
2021/11/08 07:45:36;;;;;;;21.35;5.28;;;;;;;6.86;76.08;98959.02;2210857;80;21016;-65
2021/11/08 07:48:40;;;;;;;24.15;4.70;;;;;;;6.89;76.52;98956.28;2210200;81;21032;-65
2021/11/08 07:51:41;;;;;;;22.62;4.75;;;;;;;6.91;76.47;98955.77;2188765;81;21016;-65
2021/11/08 07:54:42;;;;;;;21.55;5.08;;;;;;;7.00;76.08;98954.52;2210462;81;21000;-65
2021/11/08 07:57:44;;;;;;;18.40;4.58;;;;;;;7.01;75.83;98945.78;2210327;81;20972;-65
2021/11/08 08:00:45;;;;;;;17.73;3.98;;;;;;;7.05;76.01;98960.83;2210409;81;21045;-65
2021/11/08 08:03:47;;;;;;;20.88;4.17;;;;;;;7.11;74.96;98964.45;2210290;81;20987;-64
2021/11/08 08:06:49;;;;;;;20.65;4.25;;;;;;;7.24;76.18;98968.67;2210438;81;20991;-64
2021/11/08 08:09:50;;;;;;;23.90;4.67;;;;;;;7.35;74.57;98972.95;2210492;80;21055;-65
2021/11/08 08:12:52;;;;;;;20.88;4.05;;;;;;;7.34;74.33;98982.15;2210223;81;21542;-65
2021/11/08 08:15:54;;;;;;;20.17;4.65;;;;;;;7.40;73.74;98976.20;2210030;81;21020;-65
2021/11/08 08:18:56;;;;;;;22.20;5.03;;;;;;;7.41;74.84;98968.78;2210573;80;20975;-64
2021/11/08 08:21:58;;;;;;;20.03;4.53;;;;;;;7.45;74.97;98983.81;2210257;81;21019;-65
2021/11/08 08:24:59;;;;;;;20.32;4.50;;;;;;;7.46;74.22;98977.22;2210374;81;21219;-65
2021/11/08 08:28:00;;;;;;;18.90;4.15;;;;;;;7.44;73.33;98998.64;2210289;81;21003;-64
2021/11/08 08:31:02;;;;;;;21.82;5.05;;;;;;;7.45;74.26;98992.95;2210295;81;21444;-65
2021/11/08 08:34:03;;;;;;;20.80;4.55;;;;;;;7.49;73.98;98993.67;2210219;80;21487;-64
2021/11/08 08:37:05;;;;;;;23.70;4.50;;;;;;;7.52;72.97;98990.45;2210272;81;21012;-65
2021/11/08 08:40:06;;;;;;;23.57;4.72;;;;;;;7.54;73.44;98990.38;2210273;81;21470;-65
2021/11/08 08:43:08;;;;;;;23.27;4.33;;;;;;;7.66;73.27;98999.40;2210379;81;21004;-65
2021/11/08 08:46:09;;;;;;;20.65;4.33;;;;;;;7.75;74.30;98997.69;2210289;81;20981;-64
2021/11/08 08:49:10;;;;;;;24.87;5.25;;;;;;;7.86;72.83;99012.40;2210394;81;20988;-65
2021/11/08 08:52:12;;;;;;;18.42;5.05;;;;;;;7.91;72.25;99018.23;2210221;81;21004;-65
2021/11/08 08:55:13;;;;;;;22.70;5.12;;;;;;;7.84;72.27;99018.13;2210210;81;20976;-65
2021/11/08 08:58:15;;;;;;;19.73;4.35;;;;;;;7.84;73.05;99015.99;2210010;81;21441;-65
2021/11/08 09:01:17;;;;;;;26.12;4.65;;;;;;;7.79;72.19;99024.88;2210678;80;21459;-65
2021/11/08 09:04:18;;;;;;;23.90;4.53;;;;;;;7.79;72.33;99020.13;2210771;80;21016;-65
2021/11/08 09:07:20;;;;;;;22.93;4.08;;;;;;;7.84;72.34;99022.52;2210758;81;20991;-64
2021/11/08 09:10:21;;;;;;;17.20;3.72;;;;;;;7.78;71.67;99034.93;2210026;80;21017;-65
2021/11/08 09:13:23;;;;;;;22.52;4.28;;;;;;;7.64;71.93;99034.72;2210300;81;20973;-64
2021/11/08 09:16:24;;;;;;;20.20;4.08;;;;;;;7.58;72.07;99038.45;2210476;81;20977;-65
2021/11/08 09:19:26;;;;;;;17.13;3.70;;;;;;;7.53;73.09;99039.14;2210631;80;20993;-64
2021/11/08 09:22:27;;;;;;;16.83;3.47;;;;;;;7.52;73.33;99046.57;2210560;81;21500;-65
2021/11/08 09:25:29;;;;;;;21.35;4.62;;;;;;;7.49;73.06;99046.71;2210340;81;21032;-64
2021/11/08 09:28:30;;;;;;;18.10;3.95;;;;;;;7.42;73.41;99055.27;2210349;81;21554;-64
2021/11/08 09:31:31;;;;;;;19.42;3.83;;;;;;;7.41;73.89;99044.89;2210452;81;20996;-65
2021/11/08 09:34:37;;;;;;;18.98;3.33;;;;;;;7.40;74.07;99054.50;2210309;81;20996;-64
2021/11/08 09:37:41;;;;;;;18.10;3.37;;;;;;;7.37;74.16;99058.98;2188764;81;21574;-65
2021/11/08 09:40:39;;;;;;;13.05;2.85;;;;;;;7.31;75.40;99052.75;2188748;81;21512;-65
2021/11/08 09:43:41;;;;;;;17.52;4.22;;;;;;;7.26;75.77;99055.09;2210430;81;21044;-65
2021/11/08 09:46:42;;;;;;;18.65;4.12;;;;;;;7.24;76.08;99046.94;2210330;81;21004;-65
2021/11/08 09:49:44;;;;;;;15.35;3.85;;;;;;;7.27;75.84;99058.11;2210462;81;20988;-65
2021/11/08 09:52:45;;;;;;;17.85;3.62;;;;;;;7.32;75.88;99052.67;2210250;81;21008;-64
2021/11/08 09:55:47;;;;;;;12.10;3.42;;;;;;;7.32;76.04;99056.59;2210370;80;21061;-65
2021/11/08 09:58:49;;;;;;;12.43;3.07;;;;;;;7.36;75.82;99056.84;2210491;81;21040;-65
2021/11/08 10:01:51;;;;;;;10.95;2.95;;;;;;;7.42;75.64;99062.26;2210201;81;21092;-65
2021/11/08 10:04:53;;;;;;;14.43;3.58;;;;;;;7.41;75.81;99054.89;2210457;80;21032;-65
2021/11/08 10:07:56;;;;;;;17.07;3.62;;;;;;;7.43;75.99;99048.30;2210289;81;20977;-65
2021/11/08 10:10:57;;;;;;;16.65;3.60;;;;;;;7.51;75.40;99060.53;2210080;80;21643;-65
2021/11/08 10:13:59;;;;;;;15.00;3.55;;;;;;;7.56;75.07;99055.97;2210124;81;20996;-64
2021/11/08 10:17:01;;;;;;;15.55;3.37;;;;;;;7.60;74.87;99057.95;2210165;81;21565;-65
2021/11/08 10:20:03;;;;;;;15.30;3.02;;;;;;;7.67;74.75;99063.33;2210467;81;20969;-64
2021/11/08 10:23:04;;;;;;;13.72;3.08;;;;;;;7.70;74.08;99064.92;2210407;81;21468;-64
2021/11/08 10:26:06;;;;;;;14.75;3.33;;;;;;;7.76;73.54;99064.20;2210208;81;20992;-64
2021/11/08 10:29:07;;;;;;;13.00;3.10;;;;;;;7.83;74.15;99063.91;2209841;81;21578;-64
2021/11/08 10:32:09;;;;;;;14.87;3.05;;;;;;;7.95;72.64;99064.19;2210150;81;21024;-64
2021/11/08 10:35:10;;;;;;;10.05;2.45;;;;;;;8.07;73.00;99069.77;2210429;80;21056;-64
2021/11/08 10:38:14;;;;;;;10.00;2.60;;;;;;;8.08;72.13;99074.08;2210287;81;21023;-65
2021/11/08 10:41:15;;;;;;;11.40;3.10;;;;;;;8.03;71.83;99068.21;2188724;81;21028;-65
2021/11/08 10:44:17;;;;;;;12.05;2.50;;;;;;;8.06;72.78;99075.90;2210566;80;21096;-65
2021/11/08 10:47:21;;;;;;;15.35;3.05;;;;;;;8.00;72.63;99077.50;2210530;81;20969;-65
2021/11/08 10:50:22;;;;;;;12.88;3.27;;;;;;;7.94;72.90;99083.41;2188574;81;20984;-65
2021/11/08 10:53:23;;;;;;;11.00;2.70;;;;;;;7.89;72.57;99087.16;2210244;81;21562;-64
2021/11/08 10:56:24;;;;;;;13.45;3.12;;;;;;;7.84;72.92;99089.11;2210709;80;20988;-65
2021/11/08 10:59:26;;;;;;;19.20;3.92;;;;;;;7.79;73.26;99089.33;2210247;81;21004;-65
2021/11/08 11:02:27;;;;;;;17.35;3.95;;;;;;;7.78;74.13;99088.94;2210357;81;20985;-65
2021/11/08 11:05:29;;;;;;;16.25;3.72;;;;;;;7.71;73.57;99097.48;2210622;81;20980;-65
2021/11/08 11:08:30;;;;;;;15.30;3.52;;;;;;;7.65;74.25;99095.63;2210404;81;21447;-65
2021/11/08 11:11:32;;;;;;;14.50;3.20;;;;;;;7.62;74.00;99091.39;2210551;80;21043;-65
2021/11/08 11:14:34;;;;;;;13.83;3.25;;;;;;;7.53;74.31;99104.39;2209990;81;21519;-64
2021/11/08 11:17:36;;;;;;;14.28;3.10;;;;;;;7.46;74.26;99106.41;2210655;80;20965;-65
2021/11/08 11:20:40;;;;;;;13.58;3.12;;;;;;;7.42;74.69;99109.23;2210263;81;21562;-65
2021/11/08 11:23:41;;;;;;;16.75;3.92;;;;;;;7.41;75.17;99108.40;2188577;81;21499;-65
2021/11/08 11:26:42;;;;;;;15.93;3.70;;;;;;;7.45;75.46;99107.79;2210145;81;21062;-65
2021/11/08 11:29:44;;;;;;;12.63;3.22;;;;;;;7.45;74.62;99113.02;2209920;81;21084;-64
2021/11/08 11:32:45;;;;;;;14.58;3.42;;;;;;;7.42;74.92;99107.45;2210290;81;20981;-64
2021/11/08 11:35:48;;;;;;;16.27;3.80;;;;;;;7.43;74.95;99116.16;2210267;81;21032;-65
2021/11/08 11:38:50;;;;;;;16.10;3.70;;;;;;;7.43;74.93;99117.46;2210365;81;21020;-65
2021/11/08 11:41:51;;;;;;;11.85;3.30;;;;;;;7.43;75.75;99114.38;2210876;80;20993;-65
2021/11/08 11:44:53;;;;;;;15.00;3.50;;;;;;;7.35;77.28;99113.02;2210450;81;21004;-65
2021/11/08 11:47:54;;;;;;;14.58;3.62;;;;;;;7.16;79.13;99120.33;2210321;81;21480;-65
2021/11/08 11:50:56;;;;;;;14.90;3.60;;;;;;;7.02;80.48;99114.84;2210484;81;21116;-65
2021/11/08 11:53:57;;;;;;;16.37;4.10;;;;;;;6.87;81.83;99117.64;2209997;81;21587;-65
2021/11/08 11:56:59;;;;;;;12.23;3.12;;;;;;;6.79;82.77;99116.63;2210282;81;21085;-64
2021/11/08 12:00:00;;;;;;;17.52;3.77;;;;;;;6.69;83.72;99116.63;2210236;81;21578;-65
2021/11/08 12:03:02;;;;;;;16.23;3.83;;;;;;;6.64;84.19;99123.33;2210463;81;21027;-65
2021/11/08 12:06:03;;;;;;;16.60;3.70;;;;;;;6.64;84.23;99119.42;2210534;80;21027;-65
2021/11/08 12:09:05;;;;;;;17.15;4.53;;;;;;;6.65;84.14;99113.73;2210606;80;21515;-65
2021/11/08 12:12:07;;;;;;;21.50;6.33;;;;;;;6.69;84.74;99121.84;2220675;80;21067;-64
2021/11/08 12:15:09;;;;;;;20.80;5.17;;;;;;;6.74;84.24;99109.01;2220677;80;21134;-65
2021/11/08 12:18:12;;;;;;;21.17;5.42;;;;;;;6.83;84.10;99103.88;2220548;80;21072;-65
2021/11/08 12:21:13;;;;;;;;;;;;;;;6.97;84.18;99111.56;2222997;80;21100;-65
2021/11/08 12:24:15;;;;;;;18.32;4.55;;;;;;;7.04;83.14;99120.83;2220409;80;20442;-65
2021/11/08 12:27:16;;;;;;;22.52;5.60;;;;;;;7.05;83.07;99115.58;2220341;80;21051;-64
2021/11/08 12:30:18;;;;;;;19.10;4.47;;;;;;;7.06;82.84;99112.50;2220486;80;21025;-65
2021/11/08 12:33:19;;;;;;;18.42;4.60;;;;;;;7.09;82.76;99106.69;2220814;80;21506;-64
2021/11/08 12:36:22;;;;;;;18.50;4.58;;;;;;;7.09;82.72;99110.59;2220680;80;21039;-65
2021/11/08 12:39:24;;;;;;;18.50;4.92;;;;;;;7.08;82.91;99110.23;2190386;80;20988;-65
2021/11/08 12:42:25;;;;;;;20.10;4.87;;;;;;;7.09;83.24;99111.06;2220644;80;21531;-65
2021/11/08 12:45:27;;;;;;;18.52;4.33;;;;;;;7.02;83.50;99109.16;2220850;80;21072;-65
2021/11/08 12:48:28;;;;;;;19.77;4.90;;;;;;;6.98;83.62;99115.88;2220611;80;21095;-65
2021/11/08 12:51:29;;;;;;;22.35;5.97;;;;;;;6.92;83.93;99117.84;2220788;80;21076;-64
2021/11/08 12:54:31;;;;;;;19.35;5.50;;;;;;;6.98;83.73;99119.33;2220642;80;21031;-65
2021/11/08 12:57:32;;;;;;;25.10;7.00;;;;;;;6.99;84.22;99121.50;2221081;80;21052;-65
2021/11/08 13:00:34;;;;;;;20.25;5.70;;;;;;;6.98;84.07;99121.94;2220817;80;21019;-65
2021/11/08 13:03:38;;;;;;;22.05;5.58;;;;;;;6.94;84.06;99125.14;2220641;80;21439;-65
2021/11/08 13:06:39;;;;;;;21.62;6.17;;;;;;;6.99;84.67;99128.86;2190402;80;20989;-65
2021/11/08 13:09:41;;;;;;;20.40;5.73;;;;;;;7.03;84.33;99125.67;2220809;80;21137;-65
2021/11/08 13:12:42;;;;;;;19.55;5.30;;;;;;;7.05;84.87;99129.05;2220645;80;21273;-65
2021/11/08 13:15:43;;;;;;;23.32;6.20;;;;;;;7.06;85.21;99135.52;2220743;80;21043;-65
2021/11/08 13:18:45;;;;;;;18.35;5.50;;;;;;;7.05;86.08;99134.27;2220658;80;21511;-65
2021/11/08 13:21:46;;;;;;;20.52;6.47;;;;;;;7.06;86.49;99127.69;2220652;80;21032;-65
2021/11/08 13:24:48;;;;;;;18.63;5.40;;;;;;;7.10;86.07;99129.26;2220976;80;21494;-65
2021/11/08 13:27:49;;;;;;;19.23;6.17;;;;;;;7.14;86.32;99135.21;2220740;80;21043;-65
2021/11/08 13:30:51;;;;;;;22.15;6.90;;;;;;;7.12;86.12;99133.10;2220591;80;21055;-65
2021/11/08 13:33:52;;;;;;;23.70;7.30;;;;;;;7.21;85.81;99136.65;2220650;80;21088;-65
2021/11/08 13:36:55;;;;;;;21.30;6.33;;;;;;;7.28;85.34;99140.70;2220423;80;21127;-65
2021/11/08 13:40:01;;;;;;;;;;;;;;;7.34;85.24;99139.59;2223441;80;21028;-65
2021/11/08 13:43:00;;;;;;;22.67;7.37;;;;;;;7.37;85.05;99132.92;2190209;80;20108;-65
2021/11/08 13:46:01;;;;;;;22.22;7.35;;;;;;;7.49;85.04;99134.63;2220588;80;21516;-65
2021/11/08 13:49:03;;;;;;;23.92;8.23;;;;;;;7.54;84.72;99132.20;2220602;80;21055;-65
2021/11/08 13:52:06;;;;;;;26.47;7.07;;;;;;;7.52;84.68;99128.80;2220817;80;21503;-65
2021/11/08 13:55:08;;;;;;;24.47;7.75;;;;;;;7.49;84.51;99136.77;2190259;80;20953;-65
2021/11/08 13:58:09;;;;;;;27.87;9.05;;;;;;;7.45;84.95;99138.64;2220791;80;21024;-65
2021/11/08 14:01:11;;;;;;;27.50;8.95;;;;;;;7.46;84.68;99132.52;2220568;80;21527;-65
2021/11/08 14:04:12;;;;;;;32.48;11.80;;;;;;;7.39;84.86;99138.91;2220867;80;21043;-64
2021/11/08 14:07:14;;;;;;;26.57;8.80;;;;;;;7.33;85.07;99146.18;2221243;80;21427;-65
2021/11/08 14:10:16;;;;;;;30.52;10.95;;;;;;;7.27;85.06;99140.30;2220530;80;21099;-65
2021/11/08 14:13:18;;;;;;;28.83;9.13;;;;;;;7.23;85.08;99143.94;2220709;80;21072;-64
2021/11/08 14:16:19;;;;;;;23.77;7.87;;;;;;;7.20;85.01;99153.20;2220879;80;21048;-64
2021/11/08 14:19:21;;;;;;;25.37;7.75;;;;;;;7.18;85.44;99160.23;2220590;80;21107;-64
2021/11/08 14:22:22;;;;;;;34.13;11.50;;;;;;;7.13;85.77;99162.20;2220552;80;21056;-65
2021/11/08 14:25:23;;;;;;;29.12;8.95;;;;;;;7.13;85.79;99163.50;2220638;80;21032;-65
2021/11/08 14:28:25;;;;;;;38.58;11.83;;;;;;;7.08;85.67;99171.53;2220693;80;21032;-65
2021/11/08 14:31:27;;;;;;;;;;;;;;;7.05;85.85;99163.83;2222932;80;21088;-65
2021/11/08 14:34:32;;;;;;;24.37;7.15;;;;;;;7.03;86.20;99172.63;2220437;80;20145;-65
2021/11/08 14:37:32;;;;;;;21.17;6.33;;;;;;;6.98;86.32;99179.78;2190189;80;21036;-65
2021/11/08 14:40:36;;;;;;;22.17;6.62;;;;;;;6.92;87.11;99180.44;2220542;80;21463;-65
2021/11/08 14:43:37;;;;;;;22.25;6.75;;;;;;;6.89;87.21;99177.09;2190271;80;20992;-65
2021/11/08 14:46:39;;;;;;;22.48;7.83;;;;;;;6.87;87.38;99173.70;2220609;80;20953;-64
2021/11/08 14:49:40;;;;;;;22.85;7.25;;;;;;;6.85;87.38;99177.69;2220791;80;21083;-65
2021/11/08 14:52:42;;;;;;;22.02;8.05;;;;;;;6.80;87.86;99178.77;2220472;80;21064;-65
2021/11/08 14:55:43;;;;;;;23.75;7.28;;;;;;;6.78;87.79;99185.79;2220681;80;21543;-65
2021/11/08 14:58:45;;;;;;;24.32;8.15;;;;;;;6.74;88.20;99184.61;2220543;80;21048;-65
2021/11/08 15:01:46;;;;;;;31.87;11.45;;;;;;;6.72;88.47;99186.45;2220490;80;21508;-65
2021/11/08 15:04:48;;;;;;;25.75;8.33;;;;;;;6.76;88.23;99189.30;2220676;80;21044;-64
2021/11/08 15:07:49;;;;;;;21.48;7.75;;;;;;;6.75;89.16;99199.36;2220871;80;21032;-65
2021/11/08 15:10:50;;;;;;;16.15;4.65;;;;;;;6.77;88.63;99205.81;2216704;80;20988;-65
2021/11/08 15:13:52;;;;;;;21.65;6.25;;;;;;;6.78;89.50;99207.95;2210207;81;20996;-65
2021/11/08 15:16:53;;;;;;;20.23;6.28;;;;;;;6.73;89.45;99206.38;2210246;81;21467;-65
2021/11/08 15:19:55;;;;;;;21.05;7.47;;;;;;;6.70;89.14;99201.28;2210258;81;21039;-65
2021/11/08 15:22:56;;;;;;;24.47;7.83;;;;;;;6.74;88.57;99202.86;2210325;81;21542;-65
2021/11/08 15:25:58;;;;;;;25.90;9.20;;;;;;;6.73;88.92;99203.77;2209956;80;21290;-65
2021/11/08 15:29:01;;;;;;;23.02;7.95;;;;;;;6.69;88.62;99207.86;2210221;81;21075;-65
2021/11/08 15:32:03;;;;;;;26.25;8.30;;;;;;;6.64;88.47;99208.05;2210233;81;21511;-64
2021/11/08 15:35:04;;;;;;;23.40;7.90;;;;;;;6.60;89.23;99218.19;2210387;81;20988;-64
2021/11/08 15:38:06;;;;;;;23.90;7.78;;;;;;;6.56;89.81;99216.61;2210295;81;21100;-65
2021/11/08 15:41:07;;;;;;;23.87;8.20;;;;;;;6.54;89.48;99221.04;2210365;81;20974;-64
2021/11/08 15:44:09;;;;;;;28.87;10.10;;;;;;;6.50;89.82;99215.08;2210240;80;20957;-64
2021/11/08 15:47:11;;;;;;;24.63;9.03;;;;;;;6.48;89.91;99231.67;2209925;81;21132;-65
2021/11/08 15:50:12;;;;;;;28.32;9.93;;;;;;;6.44;90.20;99226.18;2210097;81;21075;-65
2021/11/08 15:53:14;;;;;;;28.52;10.15;;;;;;;6.43;89.75;99232.32;2210024;81;21575;-65
2021/11/08 15:56:16;;;;;;;28.35;9.85;;;;;;;6.45;89.83;99230.06;2210201;81;21028;-65
2021/11/08 15:59:17;;;;;;;28.67;10.45;;;;;;;6.46;89.89;99232.20;2210103;81;21576;-65